Time,TemperatureF,DewpointF,PressureIn,WindDirection,WindDirectionDegrees,WindSpeedMPH,WindSpeedGustMPH,Humidity,HourlyPrecipIn,Conditions,Clouds,dailyrainin,SolarRadiationWatts/m^2,SoftwareType,DateUTC
2013-06-14 00:01:00,66.9,53.5,29.94,North,0,4.3,5.9,62,0.00,RA,OVC,0.00,0.0,WeatherDisplay:10.37,2013-06-14 04:01:00,
2013-06-14 00:06:00,66.7,53.7,29.97,North,0,7.1,9.2,63,0.00,RA,OVC,0.00,0.0,WeatherDisplay:10.37,2013-06-14 04:06:00,
2013-06-14 00:11:00,66.6,53.1,29.97,NNE,22,6.4,9.2,62,0.00,FEW,OVC,0.00,0.0,WeatherDisplay:10.37,2013-06-14 04:11:00,
2013-06-14 00:16:00,66.4,53.0,29.97,NNW,338,5.4,6.9,62,0.00,FEW,OVC,0.00,0.0,WeatherDisplay:10.37,2013-06-14 04:16:00,
2013-06-14 00:21:00,66.4,53.0,29.97,NNW,338,6.9,8.1,62,0.00,FEW,OVC,0.00,0.0,WeatherDisplay:10.37,2013-06-14 04:21:00,
2013-06-14 00:26:00,66.4,53.0,29.97,NNW,338,5.4,5.8,62,0.00,FEW,OVC,0.00,0.0,WeatherDisplay:10.37,2013-06-14 04:26:00,
2013-06-14 00:31:00,66.2,53.2,29.97,NNE,22,3.6,4.6,63,0.00,FEW,OVC,0.00,0.0,WeatherDisplay:10.37,2013-06-14 04:31:00,
2013-06-14 00:36:00,66.2,53.2,29.97,NNW,338,4.3,5.8,63,0.00,FEW,OVC,0.00,0.0,WeatherDisplay:10.37,2013-06-14 04:36:00,
2013-06-14 00:41:00,66.2,53.2,29.97,NNW,338,4.5,5.8,63,0.00,FEW,OVC,0.00,0.0,WeatherDisplay:10.37,2013-06-14 04:41:00,
2013-06-14 00:46:00,66.2,53.2,29.97,NNE,22,4.0,6.9,63,0.00,FEW,OVC,0.00,0.0,WeatherDisplay:10.37,2013-06-14 04:46:00,
2013-06-14 00:51:00,66.0,53.5,29.97,North,0,5.6,8.1,64,0.00,FEW,OVC,0.00,0.0,WeatherDisplay:10.37,2013-06-14 04:51:00,
2013-06-14 00:56:00,66.0,53.1,29.97,North,0,4.3,5.9,63,0.00,FEW,OVC,0.00,0.0,WeatherDisplay:10.37,2013-06-14 04:56:00,
2013-06-14 01:01:00,66.0,53.1,29.97,NNW,338,5.9,6.9,63,0.00,OVC,,0.00,0.0,WeatherDisplay:10.37,2013-06-14 05:01:00,
2013-06-14 01:06:00,65.8,53.3,29.97,NNW,338,6.0,6.9,64,0.00,OVC,,0.00,0.0,WeatherDisplay:10.37,2013-06-14 05:06:00,
2013-06-14 01:11:00,65.8,53.3,29.97,North,0,4.9,5.8,64,0.00,OVC,,0.00,0.0,WeatherDisplay:10.37,2013-06-14 05:11:00,
2013-06-14 01:16:00,65.7,53.1,29.97,North,0,5.4,5.8,64,0.00,OVC,,0.00,0.0,WeatherDisplay:10.37,2013-06-14 05:16:00,
2013-06-14 01:21:00,65.5,53.0,29.97,North,0,5.9,6.0,64,0.00,OVC,,0.00,0.0,WeatherDisplay:10.37,2013-06-14 05:21:00,
2013-06-14 01:26:00,65.5,53.0,29.97,NNE,22,6.2,8.1,64,0.00,OVC,,0.00,0.0,WeatherDisplay:10.37,2013-06-14 05:26:00,
2013-06-14 01:31:00,65.3,52.4,29.97,NNE,22,6.0,6.0,63,0.00,OVC,,0.00,0.0,WeatherDisplay:10.37,2013-06-14 05:31:00,
2013-06-14 01:36:00,65.3,52.4,29.97,North,0,4.7,5.8,63,0.00,OVC,,0.00,0.0,WeatherDisplay:10.37,2013-06-14 05:36:00,
2013-06-14 01:41:00,65.1,51.8,29.97,NE,45,7.4,10.0,62,0.00,OVC,,0.00,0.0,WeatherDisplay:10.37,2013-06-14 05:41:00,
2013-06-14 01:47:00,65.1,51.3,29.97,NNE,22,7.6,8.1,61,0.00,OVC,,0.00,0.0,WeatherDisplay:10.37,2013-06-14 05:47:00,
2013-06-14 01:52:00,65.1,50.9,29.97,ENE,68,6.2,8.1,60,0.00,OVC,,0.00,0.0,WeatherDisplay:10.37,2013-06-14 05:52:00,
2013-06-14 01:57:00,65.1,50.9,29.97,NNE,22,9.0,9.2,60,0.00,OVC,,0.00,0.0,WeatherDisplay:10.37,2013-06-14 05:57:00,
2013-06-14 02:02:00,65.1,50.4,29.97,NNE,22,5.6,6.9,59,0.00,OVC,,0.00,0.0,WeatherDisplay:10.37,2013-06-14 06:02:00,
2013-06-14 02:07:00,65.1,50.9,29.97,NNW,338,6.0,6.9,60,0.00,OVC,,0.00,0.0,WeatherDisplay:10.37,2013-06-14 06:07:00,
2013-06-14 02:12:00,65.1,50.9,29.97,NE,45,7.4,9.2,60,0.00,OVC,,0.00,0.0,WeatherDisplay:10.37,2013-06-14 06:12:00,
2013-06-14 02:17:00,65.1,51.3,29.97,NE,45,6.0,6.9,61,0.00,OVC,,0.00,0.0,WeatherDisplay:10.37,2013-06-14 06:17:00,
2013-06-14 02:22:00,64.9,51.2,29.97,NNE,22,6.0,8.1,61,0.00,OVC,,0.00,0.0,WeatherDisplay:10.37,2013-06-14 06:22:00,
2013-06-14 02:27:00,64.9,51.2,29.97,NNE,22,4.9,5.8,61,0.00,OVC,,0.00,0.0,WeatherDisplay:10.37,2013-06-14 06:27:00,
2013-06-14 02:32:00,64.8,51.4,29.97,NNE,22,2.9,4.9,62,0.00,OVC,,0.00,0.0,WeatherDisplay:10.37,2013-06-14 06:32:00,
2013-06-14 02:37:00,64.8,51.4,29.97,NNE,22,3.8,4.6,62,0.00,OVC,,0.00,0.0,WeatherDisplay:10.37,2013-06-14 06:37:00,
2013-06-14 02:42:00,64.6,51.3,29.97,NNE,22,4.0,4.7,62,0.00,OVC,,0.00,0.0,WeatherDisplay:10.37,2013-06-14 06:42:00,
2013-06-14 02:47:00,64.6,51.3,29.97,North,0,4.5,5.8,62,0.00,OVC,,0.00,0.0,WeatherDisplay:10.37,2013-06-14 06:47:00,
2013-06-14 02:52:00,64.2,51.4,29.97,NNE,22,4.5,4.6,63,0.00,OVC,,0.00,0.0,WeatherDisplay:10.37,2013-06-14 06:52:00,
2013-06-14 02:57:00,64.0,51.2,29.97,North,0,4.7,5.8,63,0.00,OVC,,0.00,0.0,WeatherDisplay:10.37,2013-06-14 06:57:00,
2013-06-14 03:02:00,64.0,51.6,29.97,North,0,4.0,5.8,64,0.00,CLR,OVC,0.00,0.0,WeatherDisplay:10.37,2013-06-14 07:02:00,
2013-06-14 03:07:00,63.9,51.4,29.97,North,0,4.7,5.8,64,0.00,CLR,OVC,0.00,0.0,WeatherDisplay:10.37,2013-06-14 07:07:00,
2013-06-14 03:12:00,63.7,51.3,29.97,North,0,3.3,4.6,64,0.00,CLR,OVC,0.00,0.0,WeatherDisplay:10.37,2013-06-14 07:12:00,
2013-06-14 03:17:00,63.7,51.7,29.97,North,0,3.6,4.6,65,0.00,CLR,OVC,0.00,0.0,WeatherDisplay:10.37,2013-06-14 07:17:00,
2013-06-14 03:22:00,63.5,51.5,29.97,NNW,338,4.3,5.8,65,0.00,CLR,OVC,0.00,0.0,WeatherDisplay:10.37,2013-06-14 07:22:00,
2013-06-14 03:27:00,63.3,51.3,29.97,NNE,22,3.8,5.6,65,0.00,CLR,OVC,0.00,0.0,WeatherDisplay:10.37,2013-06-14 07:27:00,
2013-06-14 03:32:00,63.1,51.2,29.97,NNW,338,4.3,5.8,65,0.00,CLR,OVC,0.00,0.0,WeatherDisplay:10.37,2013-06-14 07:32:00,
2013-06-14 03:37:00,63.1,51.2,29.97,NNE,22,2.2,4.6,65,0.00,CLR,OVC,0.00,0.0,WeatherDisplay:10.37,2013-06-14 07:37:00,
2013-06-14 03:42:00,63.0,51.0,29.97,North,0,4.0,5.8,65,0.00,CLR,OVC,0.00,0.0,WeatherDisplay:10.37,2013-06-14 07:42:00,
2013-06-14 03:47:00,63.0,51.4,29.97,North,0,3.6,4.6,66,0.00,CLR,OVC,0.00,0.0,WeatherDisplay:10.37,2013-06-14 07:47:00,
2013-06-14 03:52:00,62.8,51.2,29.97,North,0,4.5,5.8,66,0.00,CLR,OVC,0.00,0.0,WeatherDisplay:10.37,2013-06-14 07:52:00,
2013-06-14 03:57:00,62.6,51.1,29.97,NNE,22,6.2,8.1,66,0.00,CLR,OVC,0.00,0.0,WeatherDisplay:10.37,2013-06-14 07:57:00,
2013-06-14 04:02:00,62.6,51.1,29.97,NNE,22,4.5,6.9,66,0.00,CLR,OVC,0.00,0.0,WeatherDisplay:10.37,2013-06-14 08:02:00,
2013-06-14 04:07:00,62.4,51.3,29.97,NNE,22,5.9,7.1,67,0.00,CLR,OVC,0.00,0.0,WeatherDisplay:10.37,2013-06-14 08:07:00,
2013-06-14 04:12:00,62.4,51.3,29.97,NNE,22,4.7,8.1,67,0.00,CLR,OVC,0.00,0.0,WeatherDisplay:10.37,2013-06-14 08:12:00,
2013-06-14 04:17:00,62.2,51.1,29.97,NNE,22,4.7,5.8,67,0.00,CLR,OVC,0.00,0.0,WeatherDisplay:10.37,2013-06-14 08:17:00,
2013-06-14 04:22:00,62.2,51.5,29.97,NNE,22,3.3,4.6,68,0.00,CLR,OVC,0.00,0.0,WeatherDisplay:10.37,2013-06-14 08:22:00,
2013-06-14 04:27:00,62.1,51.4,29.97,North,0,5.4,6.9,68,0.00,CLR,OVC,0.00,0.0,WeatherDisplay:10.37,2013-06-14 08:27:00,
2013-06-14 04:32:00,62.1,51.4,29.97,NNE,22,4.3,5.8,68,0.00,CLR,OVC,0.00,0.0,WeatherDisplay:10.37,2013-06-14 08:32:00,
2013-06-14 04:37:00,61.9,51.6,29.97,NNE,22,4.9,7.6,69,0.00,CLR,OVC,0.00,0.0,WeatherDisplay:10.37,2013-06-14 08:37:00,
2013-06-14 04:42:00,61.9,51.6,29.97,NNE,22,6.9,8.1,69,0.00,CLR,OVC,0.00,0.0,WeatherDisplay:10.37,2013-06-14 08:42:00,
2013-06-14 04:47:00,61.7,51.8,29.97,NNE,22,6.2,9.2,70,0.00,CLR,OVC,0.00,0.0,WeatherDisplay:10.37,2013-06-14 08:47:00,
2013-06-14 04:52:00,61.7,51.8,29.97,North,0,5.6,5.8,70,0.00,CLR,OVC,0.00,0.0,WeatherDisplay:10.37,2013-06-14 08:52:00,
2013-06-14 04:57:00,61.9,52.0,29.97,NNE,22,6.0,6.9,70,0.00,CLR,OVC,0.00,0.0,WeatherDisplay:10.37,2013-06-14 08:57:00,
2013-06-14 05:02:00,61.9,52.4,29.97,North,0,7.8,9.2,71,0.00,CLR,OVC,0.00,0.0,WeatherDisplay:10.37,2013-06-14 09:02:00,
2013-06-14 05:07:00,61.9,52.4,29.97,NNW,338,8.1,9.2,71,0.00,CLR,OVC,0.00,0.0,WeatherDisplay:10.37,2013-06-14 09:07:00,
2013-06-14 05:12:00,61.9,52.8,29.97,North,0,7.6,9.2,72,0.00,CLR,OVC,0.00,0.0,WeatherDisplay:10.37,2013-06-14 09:12:00,
2013-06-14 05:17:00,61.9,52.8,29.97,NNW,338,6.7,8.1,72,0.00,CLR,OVC,0.00,0.0,WeatherDisplay:10.37,2013-06-14 09:17:00,
2013-06-14 05:22:00,61.9,52.8,29.97,North,0,4.5,5.8,72,0.00,CLR,OVC,0.00,0.0,WeatherDisplay:10.37,2013-06-14 09:22:00,
2013-06-14 05:27:00,61.9,52.8,29.97,North,0,5.9,6.9,72,0.00,CLR,OVC,0.00,0.0,WeatherDisplay:10.37,2013-06-14 09:27:00,
2013-06-14 05:32:00,61.9,52.8,30.00,North,0,4.5,5.8,72,0.00,CLR,OVC,0.00,0.0,WeatherDisplay:10.37,2013-06-14 09:32:00,
2013-06-14 05:37:00,61.7,52.6,30.00,North,0,6.2,6.9,72,0.00,CLR,OVC,0.00,0.0,WeatherDisplay:10.37,2013-06-14 09:37:00,
2013-06-14 05:42:00,61.7,53.0,30.00,NNW,338,5.4,5.8,73,0.00,CLR,OVC,0.00,0.0,WeatherDisplay:10.37,2013-06-14 09:42:00,
2013-06-14 05:47:00,61.7,53.0,30.00,NNW,338,5.6,6.4,73,0.00,CLR,OVC,0.00,0.0,WeatherDisplay:10.37,2013-06-14 09:47:00,
2013-06-14 05:53:00,61.5,52.8,30.00,NNE,22,5.9,6.9,73,0.00,CLR,OVC,0.00,0.0,WeatherDisplay:10.37,2013-06-14 09:53:00,
2013-06-14 05:58:00,61.3,52.6,30.00,NNW,338,4.3,4.9,73,0.00,CLR,OVC,0.00,0.0,WeatherDisplay:10.37,2013-06-14 09:58:00,
2013-06-14 06:03:00,61.3,53.0,30.00,NNW,338,4.3,8.1,74,0.00,SCT,OVC,0.00,0.0,WeatherDisplay:10.37,2013-06-14 10:03:00,
2013-06-14 06:08:00,61.2,52.8,30.00,NNW,338,4.0,7.6,74,0.00,SCT,OVC,0.00,0.0,WeatherDisplay:10.37,2013-06-14 10:08:00,
2013-06-14 06:13:00,61.2,52.8,30.00,NNW,338,5.9,6.9,74,0.00,SCT,OVC,0.00,0.0,WeatherDisplay:10.37,2013-06-14 10:13:00,
2013-06-14 06:18:00,61.3,53.0,30.00,North,0,5.9,6.9,74,0.00,SCT,OVC,0.00,0.0,WeatherDisplay:10.37,2013-06-14 10:18:00,
2013-06-14 06:23:00,61.5,53.2,30.00,NNE,22,6.2,6.9,74,0.00,SCT,OVC,0.00,0.0,WeatherDisplay:10.37,2013-06-14 10:23:00,
2013-06-14 06:28:00,61.9,53.5,30.00,NNE,22,4.0,5.4,74,0.00,SCT,OVC,0.00,0.0,WeatherDisplay:10.37,2013-06-14 10:28:00,
2013-06-14 06:33:00,62.1,53.3,30.00,NNW,338,6.2,8.1,73,0.00,SCT,OVC,0.00,0.0,WeatherDisplay:10.37,2013-06-14 10:33:00,
2013-06-14 06:38:00,62.6,53.8,30.00,NW,315,4.5,5.8,73,0.00,SCT,OVC,0.00,0.0,WeatherDisplay:10.37,2013-06-14 10:38:00,
2013-06-14 06:43:00,63.0,53.8,30.00,NNW,338,5.6,5.9,72,0.00,SCT,OVC,0.00,0.0,WeatherDisplay:10.37,2013-06-14 10:43:00,
2013-06-14 06:48:00,63.3,53.8,30.00,NNW,338,3.8,4.6,71,0.00,SCT,OVC,0.00,0.0,WeatherDisplay:10.37,2013-06-14 10:48:00,
2013-06-14 06:53:00,64.0,54.1,30.00,North,0,4.0,6.2,70,0.00,SCT,OVC,0.00,0.0,WeatherDisplay:10.37,2013-06-14 10:53:00,
2013-06-14 06:58:00,64.2,53.8,30.00,North,0,4.9,5.8,69,0.00,SCT,OVC,0.00,0.0,WeatherDisplay:10.37,2013-06-14 10:58:00,
2013-06-14 07:03:00,64.9,54.1,30.00,NNE,22,3.3,5.8,68,0.00,SCT,OVC,0.00,0.0,WeatherDisplay:10.37,2013-06-14 11:03:00,
2013-06-14 07:08:00,65.7,54.0,30.00,NNW,338,6.4,10.4,66,0.00,SCT,OVC,0.00,0.0,WeatherDisplay:10.37,2013-06-14 11:08:00,
2013-06-14 07:13:00,65.3,52.8,30.00,NNW,338,9.2,10.4,64,0.00,SCT,OVC,0.00,0.0,WeatherDisplay:10.37,2013-06-14 11:13:00,
2013-06-14 07:18:00,65.1,51.8,30.03,North,0,9.0,10.4,62,0.00,SCT,OVC,0.00,0.0,WeatherDisplay:10.37,2013-06-14 11:18:00,
2013-06-14 07:23:00,64.9,51.2,30.03,North,0,7.4,12.8,61,0.00,SCT,OVC,0.00,0.0,WeatherDisplay:10.37,2013-06-14 11:23:00,
2013-06-14 07:28:00,64.9,50.7,30.03,NNE,22,5.6,5.8,60,0.00,SCT,OVC,0.00,100.0,WeatherDisplay:10.37,2013-06-14 11:28:00,
2013-06-14 07:33:00,65.8,51.6,30.03,NNE,22,6.0,8.1,60,0.00,SCT,OVC,0.00,100.0,WeatherDisplay:10.37,2013-06-14 11:33:00,
2013-06-14 07:38:00,66.2,51.0,30.03,NNE,22,4.9,5.8,58,0.00,SCT,OVC,0.00,100.0,WeatherDisplay:10.37,2013-06-14 11:38:00,
2013-06-14 07:43:00,66.2,50.5,30.03,North,0,7.8,10.4,57,0.00,SCT,OVC,0.00,100.0,WeatherDisplay:10.37,2013-06-14 11:43:00,
2013-06-14 07:48:00,65.8,50.2,30.03,NNE,22,4.7,5.8,57,0.00,SCT,OVC,0.00,100.0,WeatherDisplay:10.37,2013-06-14 11:48:00,
2013-06-14 07:53:00,65.7,50.0,30.03,NNE,22,7.1,13.8,57,0.00,SCT,OVC,0.00,100.0,WeatherDisplay:10.37,2013-06-14 11:53:00,
2013-06-14 07:58:00,65.8,50.2,30.03,NNE,22,7.1,8.1,57,0.00,SCT,OVC,0.00,100.0,WeatherDisplay:10.37,2013-06-14 11:58:00,
2013-06-14 08:03:00,65.7,49.5,30.06,NNE,22,6.7,10.4,56,0.00,CLR,OVC,0.00,100.0,WeatherDisplay:10.37,2013-06-14 12:03:00,
2013-06-14 08:08:00,65.7,49.5,30.06,NNE,22,9.2,10.4,56,0.00,CLR,OVC,0.00,100.0,WeatherDisplay:10.37,2013-06-14 12:08:00,
2013-06-14 08:13:00,65.8,49.7,30.06,NNE,22,7.4,11.4,56,0.00,CLR,OVC,0.00,100.0,WeatherDisplay:10.37,2013-06-14 12:13:00,
2013-06-14 08:18:00,66.0,49.9,30.06,NNE,22,5.4,8.1,56,0.00,CLR,OVC,0.00,100.0,WeatherDisplay:10.37,2013-06-14 12:18:00,
2013-06-14 08:23:00,65.8,49.7,30.06,NE,45,8.5,11.5,56,0.00,CLR,OVC,0.00,200.0,WeatherDisplay:10.37,2013-06-14 12:23:00,
2013-06-14 08:28:00,65.8,49.2,30.06,NNE,22,9.4,11.5,55,0.00,CLR,OVC,0.00,200.0,WeatherDisplay:10.37,2013-06-14 12:28:00,
2013-06-14 08:33:00,65.8,49.2,30.06,NE,45,6.0,10.4,55,0.00,CLR,OVC,0.00,200.0,WeatherDisplay:10.37,2013-06-14 12:33:00,
2013-06-14 08:38:00,66.2,49.6,30.06,ENE,68,6.7,10.4,55,0.00,CLR,OVC,0.00,200.0,WeatherDisplay:10.37,2013-06-14 12:38:00,
2013-06-14 08:43:00,66.7,50.1,30.06,NNE,22,8.5,9.2,55,0.00,CLR,OVC,0.00,200.0,WeatherDisplay:10.37,2013-06-14 12:43:00,
2013-06-14 08:48:00,66.9,50.2,30.09,East,90,4.9,6.9,55,0.00,CLR,OVC,0.00,200.0,WeatherDisplay:10.37,2013-06-14 12:48:00,
2013-06-14 08:53:00,66.6,49.4,30.09,NNE,22,9.4,12.7,54,0.00,CLR,OVC,0.00,200.0,WeatherDisplay:10.37,2013-06-14 12:53:00,
2013-06-14 08:58:00,66.6,49.4,30.09,NNE,22,6.0,6.4,54,0.00,CLR,OVC,0.00,300.0,WeatherDisplay:10.37,2013-06-14 12:58:00,
2013-06-14 09:03:00,66.7,49.6,30.06,NNE,22,4.5,5.8,54,0.00,CLR,OVC,0.00,300.0,WeatherDisplay:10.37,2013-06-14 13:03:00,
2013-06-14 09:08:00,67.1,49.9,30.06,NNE,22,6.4,9.2,54,0.00,CLR,OVC,0.00,300.0,WeatherDisplay:10.37,2013-06-14 13:08:00,
2013-06-14 09:13:00,67.3,50.1,30.06,NNE,22,7.4,9.2,54,0.00,CLR,OVC,0.00,400.0,WeatherDisplay:10.37,2013-06-14 13:13:00,
2013-06-14 09:18:00,67.6,50.4,30.06,NW,315,6.4,9.2,54,0.00,CLR,OVC,0.00,500.0,WeatherDisplay:10.37,2013-06-14 13:18:00,
2013-06-14 09:23:00,67.6,50.4,30.06,NNE,22,6.2,6.9,54,0.00,CLR,OVC,0.00,500.0,WeatherDisplay:10.37,2013-06-14 13:23:00,
2013-06-14 09:28:00,67.8,50.6,30.06,NNW,338,8.7,10.4,54,0.00,CLR,OVC,0.00,500.0,WeatherDisplay:10.37,2013-06-14 13:28:00,
2013-06-14 09:33:00,67.8,50.6,30.06,NNW,338,6.7,9.2,54,0.00,CLR,OVC,0.00,600.0,WeatherDisplay:10.37,2013-06-14 13:33:00,
2013-06-14 09:38:00,67.8,50.6,30.06,NE,45,7.6,9.8,54,0.00,CLR,OVC,0.00,600.0,WeatherDisplay:10.37,2013-06-14 13:38:00,
2013-06-14 09:43:00,67.8,50.1,30.06,NNE,22,4.5,7.4,53,0.00,CLR,OVC,0.00,700.0,WeatherDisplay:10.37,2013-06-14 13:43:00,
2013-06-14 09:48:00,68.0,50.2,30.09,NNE,22,9.2,10.4,53,0.00,CLR,OVC,0.00,700.0,WeatherDisplay:10.37,2013-06-14 13:48:00,
2013-06-14 09:53:00,68.2,49.9,30.09,NE,45,5.9,8.1,52,0.00,CLR,OVC,0.00,700.0,WeatherDisplay:10.37,2013-06-14 13:53:00,
2013-06-14 09:58:00,68.5,50.2,30.09,NNW,338,7.4,11.5,52,0.00,CLR,OVC,0.00,800.0,WeatherDisplay:10.37,2013-06-14 13:58:00,
2013-06-14 10:03:00,69.1,51.2,30.09,NNW,338,5.4,6.9,53,0.00,CLR,OVC,0.00,800.0,WeatherDisplay:10.37,2013-06-14 14:03:00,
2013-06-14 10:08:00,69.3,51.4,30.09,NW,315,9.0,12.3,53,0.00,CLR,OVC,0.00,800.0,WeatherDisplay:10.37,2013-06-14 14:08:00,
2013-06-14 10:13:00,69.1,50.2,30.09,NNW,338,8.5,10.4,51,0.00,CLR,OVC,0.00,800.0,WeatherDisplay:10.37,2013-06-14 14:13:00,
2013-06-14 10:19:00,69.1,50.2,30.09,NNE,22,7.4,8.1,51,0.00,CLR,OVC,0.00,900.0,WeatherDisplay:10.37,2013-06-14 14:19:00,
2013-06-14 10:24:00,69.4,51.0,30.09,North,0,5.6,8.1,52,0.00,CLR,OVC,0.00,900.0,WeatherDisplay:10.37,2013-06-14 14:24:00,
2013-06-14 10:29:00,69.3,50.4,30.09,NNW,338,6.0,8.1,51,0.00,CLR,OVC,0.00,900.0,WeatherDisplay:10.37,2013-06-14 14:29:00,
2013-06-14 10:34:00,69.4,49.4,30.09,North,0,7.4,10.5,49,0.00,CLR,OVC,0.00,1000.0,WeatherDisplay:10.37,2013-06-14 14:34:00,
2013-06-14 10:39:00,69.3,49.3,30.09,North,0,8.5,8.7,49,0.00,CLR,OVC,0.00,1000.0,WeatherDisplay:10.37,2013-06-14 14:39:00,
2013-06-14 10:44:00,69.1,48.6,30.09,NNE,22,6.4,9.2,48,0.00,CLR,OVC,0.00,1000.0,WeatherDisplay:10.37,2013-06-14 14:44:00,
2013-06-14 10:49:00,69.3,49.3,30.12,North,0,9.7,12.5,49,0.00,CLR,OVC,0.00,1100.0,WeatherDisplay:10.37,2013-06-14 14:49:00,
2013-06-14 10:54:00,69.3,48.7,30.12,North,0,9.8,13.8,48,0.00,CLR,OVC,0.00,1100.0,WeatherDisplay:10.37,2013-06-14 14:54:00,
2013-06-14 10:59:00,69.1,48.6,30.12,NE,45,6.7,9.2,48,0.00,CLR,OVC,0.00,0.0,WeatherDisplay:10.37,2013-06-14 14:59:00,
2013-06-14 11:04:00,69.4,48.9,30.12,NE,45,6.9,10.4,48,0.00,CLR,OVC,0.00,0.0,WeatherDisplay:10.37,2013-06-14 15:04:00,
2013-06-14 11:09:00,69.6,49.1,30.12,NNE,22,9.0,11.5,48,0.00,CLR,OVC,0.00,0.0,WeatherDisplay:10.37,2013-06-14 15:09:00,
2013-06-14 11:14:00,70.0,49.4,30.12,NNE,22,6.0,8.1,48,0.00,CLR,OVC,0.00,1200.0,WeatherDisplay:10.37,2013-06-14 15:14:00,
2013-06-14 11:19:00,70.3,49.7,30.12,North,0,6.4,9.2,48,0.00,CLR,OVC,0.00,1200.0,WeatherDisplay:10.37,2013-06-14 15:19:00,
2013-06-14 11:24:00,70.3,49.7,30.12,NNE,22,6.7,9.2,48,0.00,CLR,OVC,0.00,1300.0,WeatherDisplay:10.37,2013-06-14 15:24:00,
2013-06-14 11:29:00,70.3,49.1,30.12,NW,315,8.7,12.7,47,0.00,CLR,OVC,0.00,1300.0,WeatherDisplay:10.37,2013-06-14 15:29:00,
2013-06-14 11:34:00,70.3,49.1,30.12,NNW,338,6.7,8.1,47,0.00,CLR,OVC,0.00,1300.0,WeatherDisplay:10.37,2013-06-14 15:34:00,
2013-06-14 11:39:00,70.3,49.1,30.12,North,0,7.4,8.1,47,0.00,CLR,OVC,0.00,1300.0,WeatherDisplay:10.37,2013-06-14 15:39:00,
2013-06-14 11:44:00,70.5,49.3,30.12,North,0,4.7,6.4,47,0.00,CLR,OVC,0.00,1300.0,WeatherDisplay:10.37,2013-06-14 15:44:00,
2013-06-14 11:49:00,70.9,49.6,30.09,NNE,22,6.2,9.2,47,0.00,CLR,OVC,0.00,1400.0,WeatherDisplay:10.37,2013-06-14 15:49:00,
2013-06-14 11:54:00,71.1,49.8,30.09,WNW,292,7.8,12.5,47,0.00,CLR,OVC,0.00,1400.0,WeatherDisplay:10.37,2013-06-14 15:54:00,
2013-06-14 11:59:00,71.1,49.2,30.09,NNW,338,10.2,12.7,46,0.00,CLR,OVC,0.00,1400.0,WeatherDisplay:10.37,2013-06-14 15:59:00,
2013-06-14 12:04:00,71.1,49.2,30.12,NNW,338,7.6,11.5,46,0.00,CLR,OVC,0.00,1400.0,WeatherDisplay:10.37,2013-06-14 16:04:00,
2013-06-14 12:09:00,70.9,48.5,30.12,NNW,338,10.0,12.8,45,0.00,CLR,OVC,0.00,1400.0,WeatherDisplay:10.37,2013-06-14 16:09:00,
2013-06-14 12:14:00,70.9,48.5,30.12,NNE,22,7.1,10.4,45,0.00,CLR,OVC,0.00,1400.0,WeatherDisplay:10.37,2013-06-14 16:14:00,
2013-06-14 12:19:00,71.1,49.2,30.12,East,90,7.8,10.4,46,0.00,CLR,OVC,0.00,1500.0,WeatherDisplay:10.37,2013-06-14 16:19:00,
2013-06-14 12:24:00,71.2,49.4,30.12,NW,315,6.4,10.4,46,0.00,CLR,OVC,0.00,1500.0,WeatherDisplay:10.37,2013-06-14 16:24:00,
2013-06-14 12:29:00,71.4,49.0,30.12,North,0,5.9,11.5,45,0.00,CLR,OVC,0.00,1500.0,WeatherDisplay:10.37,2013-06-14 16:29:00,
2013-06-14 12:34:00,71.6,49.1,30.12,NNE,22,5.9,9.2,45,0.00,CLR,OVC,0.00,1500.0,WeatherDisplay:10.37,2013-06-14 16:34:00,
2013-06-14 12:39:00,71.8,49.3,30.12,NNE,22,4.7,6.9,45,0.00,CLR,OVC,0.00,1500.0,WeatherDisplay:10.37,2013-06-14 16:39:00,
2013-06-14 12:44:00,71.6,49.1,30.12,NNW,338,11.4,13.8,45,0.00,CLR,OVC,0.00,600.0,WeatherDisplay:10.37,2013-06-14 16:44:00,
2013-06-14 12:49:00,71.8,49.3,30.12,NE,45,4.9,8.1,45,0.00,CLR,OVC,0.00,1500.0,WeatherDisplay:10.37,2013-06-14 16:49:00,
2013-06-14 12:54:00,72.0,49.5,30.12,NNW,338,6.7,8.1,45,0.00,CLR,OVC,0.00,1500.0,WeatherDisplay:10.37,2013-06-14 16:54:00,
2013-06-14 12:59:00,72.1,49.6,30.12,North,0,5.6,5.8,45,0.00,CLR,OVC,0.00,1500.0,WeatherDisplay:10.37,2013-06-14 16:59:00,
2013-06-14 13:04:00,72.1,49.6,30.09,North,0,7.8,10.4,45,0.00,CLR,OVC,0.00,1500.0,WeatherDisplay:10.37,2013-06-14 17:04:00,
2013-06-14 13:09:00,72.1,49.0,30.09,NNE,22,6.0,8.1,44,0.00,CLR,OVC,0.00,1500.0,WeatherDisplay:10.37,2013-06-14 17:09:00,
2013-06-14 13:14:00,72.3,49.2,30.09,NW,315,10.2,12.7,44,0.00,CLR,OVC,0.00,1500.0,WeatherDisplay:10.37,2013-06-14 17:14:00,
2013-06-14 13:19:00,72.3,49.2,30.09,NNE,22,8.1,9.2,44,0.00,CLR,OVC,0.00,1500.0,WeatherDisplay:10.37,2013-06-14 17:19:00,
2013-06-14 13:24:00,72.5,49.3,30.09,NNE,22,9.7,11.5,44,0.00,CLR,OVC,0.00,1500.0,WeatherDisplay:10.37,2013-06-14 17:24:00,
2013-06-14 13:29:00,72.3,49.2,30.09,NNE,22,9.7,11.5,44,0.00,CLR,OVC,0.00,1500.0,WeatherDisplay:10.37,2013-06-14 17:29:00,
2013-06-14 13:34:00,72.5,49.3,30.09,NE,45,5.9,9.2,44,0.00,CLR,OVC,0.00,1500.0,WeatherDisplay:10.37,2013-06-14 17:34:00,
2013-06-14 13:39:00,72.5,49.3,30.09,North,0,9.7,12.7,44,0.00,CLR,OVC,0.00,1500.0,WeatherDisplay:10.37,2013-06-14 17:39:00,
2013-06-14 13:44:00,72.7,49.5,30.09,NW,315,2.0,7.8,44,0.00,CLR,OVC,0.00,1500.0,WeatherDisplay:10.37,2013-06-14 17:44:00,
2013-06-14 13:49:00,72.9,49.7,30.09,NE,45,8.5,9.2,44,0.00,CLR,OVC,0.00,1500.0,WeatherDisplay:10.37,2013-06-14 17:49:00,
2013-06-14 13:54:00,73.0,49.8,30.09,NNE,22,6.7,10.7,44,0.00,CLR,OVC,0.00,1500.0,WeatherDisplay:10.37,2013-06-14 17:54:00,
2013-06-14 13:59:00,72.9,49.7,30.09,NNE,22,4.0,5.8,44,0.00,CLR,OVC,0.00,1500.0,WeatherDisplay:10.37,2013-06-14 17:59:00,
2013-06-14 14:04:00,73.0,49.8,30.09,NNE,22,4.7,6.9,44,0.00,FEW,OVC,0.00,1500.0,WeatherDisplay:10.37,2013-06-14 18:04:00,
2013-06-14 14:09:00,73.0,49.8,30.09,NE,45,6.7,9.8,44,0.00,FEW,OVC,0.00,1500.0,WeatherDisplay:10.37,2013-06-14 18:09:00,
2013-06-14 14:14:00,73.2,50.0,30.09,ENE,68,3.8,5.9,44,0.00,FEW,OVC,0.00,1500.0,WeatherDisplay:10.37,2013-06-14 18:14:00,
2013-06-14 14:19:00,73.2,49.4,30.06,NE,45,3.8,6.9,43,0.00,FEW,OVC,0.00,1500.0,WeatherDisplay:10.37,2013-06-14 18:19:00,
2013-06-14 14:24:00,73.2,49.4,30.06,NNW,338,2.9,6.7,43,0.00,FEW,OVC,0.00,1500.0,WeatherDisplay:10.37,2013-06-14 18:24:00,
2013-06-14 14:29:00,73.4,49.5,30.06,NNW,338,4.9,8.1,43,0.00,FEW,OVC,0.00,1500.0,WeatherDisplay:10.37,2013-06-14 18:29:00,
2013-06-14 14:34:00,73.6,49.7,30.09,NNE,22,4.3,5.8,43,0.00,FEW,OVC,0.00,1400.0,WeatherDisplay:10.37,2013-06-14 18:34:00,
2013-06-14 14:39:00,73.6,49.7,30.09,ENE,68,4.9,8.1,43,0.00,FEW,OVC,0.00,1400.0,WeatherDisplay:10.37,2013-06-14 18:39:00,
2013-06-14 14:45:00,73.4,49.5,30.09,NNW,338,6.7,8.1,43,0.00,FEW,OVC,0.00,1400.0,WeatherDisplay:10.37,2013-06-14 18:45:00,
2013-06-14 14:50:00,73.4,49.5,30.06,NNW,338,1.6,3.8,43,0.00,FEW,OVC,0.00,1400.0,WeatherDisplay:10.37,2013-06-14 18:50:00,
2013-06-14 14:55:00,73.8,49.9,30.06,NNW,338,5.4,6.9,43,0.00,FEW,OVC,0.00,1300.0,WeatherDisplay:10.37,2013-06-14 18:55:00,
2013-06-14 15:00:00,73.8,49.2,30.06,NNE,22,4.5,10.4,42,0.00,FEW,OVC,0.00,1300.0,WeatherDisplay:10.37,2013-06-14 19:00:00,
2013-06-14 15:05:00,73.9,49.4,30.06,North,0,6.2,8.1,42,0.00,CLR,OVC,0.00,1300.0,WeatherDisplay:10.37,2013-06-14 19:05:00,
2013-06-14 15:10:00,73.9,49.4,30.06,NNE,22,6.2,9.2,42,0.00,CLR,OVC,0.00,1300.0,WeatherDisplay:10.37,2013-06-14 19:10:00,
2013-06-14 15:15:00,73.9,49.4,30.06,NE,45,5.9,6.9,42,0.00,CLR,OVC,0.00,1300.0,WeatherDisplay:10.37,2013-06-14 19:15:00,
2013-06-14 15:20:00,74.1,49.6,30.06,ENE,68,3.1,4.6,42,0.00,CLR,OVC,0.00,1300.0,WeatherDisplay:10.37,2013-06-14 19:20:00,
2013-06-14 15:25:00,74.1,49.6,30.06,NE,45,6.2,11.5,42,0.00,CLR,OVC,0.00,1300.0,WeatherDisplay:10.37,2013-06-14 19:25:00,
2013-06-14 15:30:00,74.3,49.7,30.06,NNW,338,9.0,10.4,42,0.00,CLR,OVC,0.00,1300.0,WeatherDisplay:10.37,2013-06-14 19:30:00,
2013-06-14 15:35:00,74.1,49.6,30.06,North,0,4.0,6.9,42,0.00,CLR,OVC,0.00,1200.0,WeatherDisplay:10.37,2013-06-14 19:35:00,
2013-06-14 15:40:00,74.1,49.6,30.06,NNW,338,5.9,6.9,42,0.00,CLR,OVC,0.00,1200.0,WeatherDisplay:10.37,2013-06-14 19:40:00,
2013-06-14 15:45:00,74.1,49.6,30.06,NE,45,3.8,8.1,42,0.00,CLR,OVC,0.00,1200.0,WeatherDisplay:10.37,2013-06-14 19:45:00,
2013-06-14 15:50:00,74.3,49.7,30.03,NNE,22,5.9,8.5,42,0.00,CLR,OVC,0.00,1200.0,WeatherDisplay:10.37,2013-06-14 19:50:00,
2013-06-14 15:55:00,74.3,49.7,30.03,NE,45,4.9,6.9,42,0.00,CLR,OVC,0.00,1200.0,WeatherDisplay:10.37,2013-06-14 19:55:00,
2013-06-14 16:00:00,74.5,49.9,30.03,East,90,0.9,3.1,42,0.00,CLR,OVC,0.00,1100.0,WeatherDisplay:10.37,2013-06-14 20:00:00,
2013-06-14 16:05:00,74.7,50.0,30.06,NE,45,4.5,4.6,42,0.00,CLR,OVC,0.00,1100.0,WeatherDisplay:10.37,2013-06-14 20:05:00,
2013-06-14 16:10:00,74.7,50.0,30.06,NW,315,2.4,2.4,42,0.00,CLR,OVC,0.00,1000.0,WeatherDisplay:10.37,2013-06-14 20:10:00,
2013-06-14 16:15:00,74.8,50.2,30.06,NNE,22,3.6,6.9,42,0.00,CLR,OVC,0.00,1000.0,WeatherDisplay:10.37,2013-06-14 20:15:00,
2013-06-14 16:20:00,74.8,50.2,30.06,NE,45,3.3,4.0,42,0.00,CLR,OVC,0.00,1000.0,WeatherDisplay:10.37,2013-06-14 20:20:00,
2013-06-14 16:25:00,75.0,50.4,30.06,WNW,292,5.4,6.9,42,0.00,CLR,OVC,0.00,1000.0,WeatherDisplay:10.37,2013-06-14 20:25:00,
2013-06-14 16:30:00,75.0,50.4,30.06,NE,45,6.4,9.2,42,0.00,CLR,OVC,0.00,1000.0,WeatherDisplay:10.37,2013-06-14 20:30:00,
2013-06-14 16:35:00,75.0,50.4,30.09,ENE,68,4.7,5.8,42,0.00,CLR,OVC,0.00,900.0,WeatherDisplay:10.37,2013-06-14 20:35:00,
2013-06-14 16:40:00,75.0,50.4,30.09,NNW,338,3.1,4.6,42,0.00,CLR,OVC,0.00,900.0,WeatherDisplay:10.37,2013-06-14 20:40:00,
2013-06-14 16:45:00,75.0,50.4,30.09,SSE,158,0.0,0.0,42,0.00,CLR,OVC,0.00,900.0,WeatherDisplay:10.37,2013-06-14 20:45:00,
2013-06-14 16:50:00,75.0,50.4,30.03,NW,315,3.3,4.6,42,0.00,CLR,OVC,0.00,700.0,WeatherDisplay:10.37,2013-06-14 20:50:00,
2013-06-14 16:55:00,75.0,50.4,30.03,North,4,6.0,7.0,42,0.00,CLR,OVC,0.00,0.0,WeatherDisplay:10.37,2013-06-14 20:55:00,
2013-06-14 17:00:00,75.0,50.4,30.03,NE,50,2.0,6.0,42,0.00,CLR,OVC,0.00,0.0,WeatherDisplay:10.37,2013-06-14 21:00:00,
2013-06-14 17:05:00,75.4,50.0,30.03,NE,46,3.0,7.0,41,0.00,CLR,OVC,0.00,0.0,WeatherDisplay:10.37,2013-06-14 21:05:00,
2013-06-14 17:10:00,75.6,50.2,30.03,NE,45,3.8,5.8,41,0.00,CLR,OVC,0.00,700.0,WeatherDisplay:10.37,2013-06-14 21:10:00,
2013-06-14 17:15:00,75.6,50.2,30.03,NNW,338,0.0,1.2,41,0.00,CLR,OVC,0.00,600.0,WeatherDisplay:10.37,2013-06-14 21:15:00,
2013-06-14 17:20:00,75.6,50.2,30.06,ENE,68,1.4,3.8,41,0.00,CLR,OVC,0.00,500.0,WeatherDisplay:10.37,2013-06-14 21:20:00,
2013-06-14 17:25:00,75.4,50.0,30.06,ENE,68,4.5,5.8,41,0.00,CLR,OVC,0.00,500.0,WeatherDisplay:10.37,2013-06-14 21:25:00,
2013-06-14 17:30:00,75.5,50.1,30.06,NE,55,3.0,6.0,41,0.00,CLR,OVC,0.00,0.0,WeatherDisplay:10.37,2013-06-14 21:30:00,
2013-06-14 17:35:00,75.6,50.2,30.06,NNE,22,3.1,5.8,41,0.00,CLR,OVC,0.00,400.0,WeatherDisplay:10.37,2013-06-14 21:35:00,
2013-06-14 17:40:00,75.6,50.2,30.06,NE,45,6.7,8.1,41,0.00,CLR,OVC,0.00,300.0,WeatherDisplay:10.37,2013-06-14 21:40:00,
2013-06-14 17:45:00,75.7,50.4,30.06,NNE,22,4.0,5.8,41,0.00,CLR,OVC,0.00,300.0,WeatherDisplay:10.37,2013-06-14 21:45:00,
2013-06-14 17:50:00,75.9,50.5,30.03,North,0,0.9,2.3,41,0.00,CLR,OVC,0.00,0.0,WeatherDisplay:10.37,2013-06-14 21:50:00,
2013-06-14 17:55:00,76.1,50.7,30.03,WNW,292,3.8,5.8,41,0.00,CLR,OVC,0.00,300.0,WeatherDisplay:10.37,2013-06-14 21:55:00,
2013-06-14 18:00:00,75.9,49.2,30.03,North,0,6.4,8.1,39,0.00,CLR,OVC,0.00,300.0,WeatherDisplay:10.37,2013-06-14 22:00:00,
2013-06-14 18:05:00,75.7,49.0,30.06,NNW,338,6.4,8.1,39,0.00,FEW,OVC,0.00,300.0,WeatherDisplay:10.37,2013-06-14 22:05:00,
2013-06-14 18:10:00,75.7,49.0,30.06,West,270,4.5,8.1,39,0.00,FEW,OVC,0.00,200.0,WeatherDisplay:10.37,2013-06-14 22:10:00,
2013-06-14 18:15:00,75.7,49.0,30.06,North,0,7.6,9.2,39,0.00,FEW,OVC,0.00,200.0,WeatherDisplay:10.37,2013-06-14 22:15:00,
2013-06-14 18:20:00,75.6,48.9,30.06,NNW,338,4.3,5.8,39,0.00,FEW,OVC,0.00,200.0,WeatherDisplay:10.37,2013-06-14 22:20:00,
2013-06-14 18:25:00,75.6,48.9,30.06,NNE,22,4.7,6.9,39,0.00,FEW,OVC,0.00,200.0,WeatherDisplay:10.37,2013-06-14 22:25:00,
2013-06-14 18:30:00,75.6,48.9,30.06,WSW,248,4.9,6.9,39,0.00,FEW,OVC,0.00,200.0,WeatherDisplay:10.37,2013-06-14 22:30:00,
2013-06-14 18:35:00,75.6,48.9,30.06,North,0,6.0,7.4,39,0.00,FEW,OVC,0.00,200.0,WeatherDisplay:10.37,2013-06-14 22:35:00,
2013-06-14 18:40:00,75.4,48.7,30.06,NW,315,5.6,6.0,39,0.00,FEW,OVC,0.00,200.0,WeatherDisplay:10.37,2013-06-14 22:40:00,
2013-06-14 18:45:00,75.4,48.7,30.06,NNW,338,2.2,6.0,39,0.00,FEW,OVC,0.00,200.0,WeatherDisplay:10.37,2013-06-14 22:45:00,
2013-06-14 18:50:00,75.2,48.5,30.06,NNW,338,4.5,6.9,39,0.00,FEW,OVC,0.00,100.0,WeatherDisplay:10.37,2013-06-14 22:50:00,
2013-06-14 18:55:00,75.2,48.5,30.06,WNW,292,5.4,5.8,39,0.00,FEW,OVC,0.00,100.0,WeatherDisplay:10.37,2013-06-14 22:55:00,
2013-06-14 19:00:00,75.2,48.5,30.06,WNW,292,3.6,5.8,39,0.00,FEW,OVC,0.00,100.0,WeatherDisplay:10.37,2013-06-14 23:00:00,
2013-06-14 19:05:00,75.0,48.4,30.09,WNW,292,3.3,4.6,39,0.00,SCT,OVC,0.00,100.0,WeatherDisplay:10.37,2013-06-14 23:05:00,
2013-06-14 19:10:00,75.2,48.5,30.09,West,270,0.0,0.9,39,0.00,SCT,OVC,0.00,100.0,WeatherDisplay:10.37,2013-06-14 23:10:00,
2013-06-14 19:15:00,75.2,48.5,30.09,NNE,22,2.6,4.3,39,0.00,SCT,OVC,0.00,100.0,WeatherDisplay:10.37,2013-06-14 23:15:00,
2013-06-14 19:20:00,75.0,48.4,30.06,North,0,3.1,4.9,39,0.00,SCT,OVC,0.00,100.0,WeatherDisplay:10.37,2013-06-14 23:20:00,
2013-06-14 19:25:00,74.8,48.2,30.06,NNW,338,4.0,6.9,39,0.00,SCT,OVC,0.00,100.0,WeatherDisplay:10.37,2013-06-14 23:25:00,
2013-06-14 19:30:00,74.7,48.1,30.06,NE,45,6.7,8.1,39,0.00,SCT,OVC,0.00,100.0,WeatherDisplay:10.37,2013-06-14 23:30:00,
2013-06-14 19:35:00,74.5,47.9,30.06,NNW,338,4.9,5.8,39,0.00,SCT,OVC,0.00,100.0,WeatherDisplay:10.37,2013-06-14 23:35:00,
2013-06-14 19:40:00,74.3,47.7,30.06,NNW,338,4.7,5.8,39,0.00,SCT,OVC,0.00,100.0,WeatherDisplay:10.37,2013-06-14 23:40:00,
2013-06-14 19:45:00,74.1,47.6,30.06,NW,315,2.6,4.6,39,0.00,SCT,OVC,0.00,0.0,WeatherDisplay:10.37,2013-06-14 23:45:00,
2013-06-14 19:50:00,74.1,47.6,30.06,North,0,1.2,5.4,39,0.00,SCT,OVC,0.00,0.0,WeatherDisplay:10.37,2013-06-14 23:50:00,
2013-06-14 19:56:00,73.9,47.4,30.06,NNE,22,4.0,4.6,39,0.00,SCT,OVC,0.00,0.0,WeatherDisplay:10.37,2013-06-14 23:56:00,
2013-06-14 20:01:00,73.8,47.3,30.06,NNE,22,4.9,5.8,39,0.00,SCT,OVC,0.00,0.0,WeatherDisplay:10.37,2013-06-15 00:01:00,
2013-06-14 20:06:00,73.4,46.9,30.06,NNW,338,4.3,5.8,39,0.00,SCT,OVC,0.00,0.0,WeatherDisplay:10.37,2013-06-15 00:06:00,
2013-06-14 20:11:00,73.2,47.4,30.06,NNE,22,2.9,3.6,40,0.00,SCT,OVC,0.00,0.0,WeatherDisplay:10.37,2013-06-15 00:11:00,
2013-06-14 20:16:00,73.0,47.3,30.06,NNE,22,1.6,4.3,40,0.00,SCT,OVC,0.00,0.0,WeatherDisplay:10.37,2013-06-15 00:16:00,
2013-06-14 20:21:00,73.0,47.3,30.03,NNE,22,1.6,3.6,40,0.00,SCT,OVC,0.00,0.0,WeatherDisplay:10.37,2013-06-15 00:21:00,
2013-06-14 20:26:00,72.9,47.1,30.03,NE,45,2.4,3.1,40,0.00,SCT,OVC,0.00,0.0,WeatherDisplay:10.37,2013-06-15 00:26:00,
2013-06-14 20:31:00,72.9,47.1,30.03,NNE,22,0.9,1.6,40,0.00,SCT,OVC,0.00,0.0,WeatherDisplay:10.37,2013-06-15 00:31:00,
2013-06-14 20:36:00,72.7,47.0,30.06,NE,45,1.2,1.2,40,0.00,SCT,OVC,0.00,0.0,WeatherDisplay:10.37,2013-06-15 00:36:00,
2013-06-14 20:41:00,72.5,46.8,30.06,NE,45,0.9,2.3,40,0.00,SCT,OVC,0.00,0.0,WeatherDisplay:10.37,2013-06-15 00:41:00,
2013-06-14 20:46:00,72.3,46.6,30.06,ENE,68,2.4,3.5,40,0.00,SCT,OVC,0.00,0.0,WeatherDisplay:10.37,2013-06-15 00:46:00,
2013-06-14 20:51:00,72.1,47.8,30.03,NE,45,3.1,3.5,42,0.00,SCT,OVC,0.00,0.0,WeatherDisplay:10.37,2013-06-15 00:51:00,
2013-06-14 20:56:00,72.0,47.6,30.03,ENE,68,1.2,3.5,42,0.00,SCT,OVC,0.00,0.0,WeatherDisplay:10.37,2013-06-15 00:56:00,
2013-06-14 21:01:00,71.6,47.3,30.03,ENE,68,1.4,2.3,42,0.00,SCT,OVC,0.00,0.0,WeatherDisplay:10.37,2013-06-15 01:01:00,
2013-06-14 21:06:00,71.4,47.7,30.06,NNE,22,1.6,2.3,43,0.00,CLR,OVC,0.00,0.0,WeatherDisplay:10.37,2013-06-15 01:06:00,
2013-06-14 21:11:00,71.1,47.4,30.06,NE,45,1.4,2.3,43,0.00,CLR,OVC,0.00,0.0,WeatherDisplay:10.37,2013-06-15 01:11:00,
2013-06-14 21:16:00,70.9,47.3,30.06,NE,45,1.6,2.3,43,0.00,CLR,OVC,0.00,0.0,WeatherDisplay:10.37,2013-06-15 01:16:00,
2013-06-14 21:21:00,70.7,47.1,30.06,NE,45,1.4,3.5,43,0.00,CLR,OVC,0.00,0.0,WeatherDisplay:10.37,2013-06-15 01:21:00,
2013-06-14 21:26:00,70.5,46.9,30.06,NNE,22,1.2,2.3,43,0.00,CLR,OVC,0.00,0.0,WeatherDisplay:10.37,2013-06-15 01:26:00,
2013-06-14 21:31:00,70.3,46.8,30.06,NE,45,2.0,2.3,43,0.00,CLR,OVC,0.00,0.0,WeatherDisplay:10.37,2013-06-15 01:31:00,
2013-06-14 21:36:00,70.2,46.6,30.06,NE,45,2.2,3.5,43,0.00,CLR,OVC,0.00,0.0,WeatherDisplay:10.37,2013-06-15 01:36:00,
2013-06-14 21:41:00,70.0,46.4,30.06,NE,45,0.0,0.0,43,0.00,CLR,OVC,0.00,0.0,WeatherDisplay:10.37,2013-06-15 01:41:00,
2013-06-14 21:46:00,69.6,46.1,30.06,NE,45,0.0,0.0,43,0.00,CLR,OVC,0.00,0.0,WeatherDisplay:10.37,2013-06-15 01:46:00,
2013-06-14 21:51:00,69.4,46.6,30.06,ENE,68,0.0,0.0,44,0.00,CLR,OVC,0.00,0.0,WeatherDisplay:10.37,2013-06-15 01:51:00,
2013-06-14 21:56:00,69.3,46.4,30.06,NE,45,0.0,0.0,44,0.00,CLR,OVC,0.00,0.0,WeatherDisplay:10.37,2013-06-15 01:56:00,
2013-06-14 22:01:00,68.9,46.1,30.06,NE,45,0.0,0.0,44,0.00,CLR,OVC,0.00,0.0,WeatherDisplay:10.37,2013-06-15 02:01:00,
2013-06-14 22:06:00,68.7,45.9,30.06,NE,45,0.0,0.0,44,0.00,CLR,OVC,0.00,0.0,WeatherDisplay:10.37,2013-06-15 02:06:00,
2013-06-14 22:11:00,68.5,45.8,30.06,NE,45,0.0,0.0,44,0.00,CLR,OVC,0.00,0.0,WeatherDisplay:10.37,2013-06-15 02:11:00,
2013-06-14 22:16:00,68.4,46.2,30.06,NE,45,0.0,0.0,45,0.00,CLR,OVC,0.00,0.0,WeatherDisplay:10.37,2013-06-15 02:16:00,
2013-06-14 22:21:00,68.2,46.0,30.09,NE,45,0.0,0.0,45,0.00,CLR,OVC,0.00,0.0,WeatherDisplay:10.37,2013-06-15 02:21:00,
2013-06-14 22:26:00,68.0,46.4,30.09,NE,45,0.0,0.0,46,0.00,CLR,OVC,0.00,0.0,WeatherDisplay:10.37,2013-06-15 02:26:00,
2013-06-14 22:31:00,67.6,46.7,30.09,SSE,158,1.6,3.5,47,0.00,CLR,OVC,0.00,0.0,WeatherDisplay:10.37,2013-06-15 02:31:00,
2013-06-14 22:36:00,67.1,46.2,30.09,SE,135,0.0,0.0,47,0.00,CLR,OVC,0.00,0.0,WeatherDisplay:10.37,2013-06-15 02:36:00,
2013-06-14 22:41:00,66.9,46.0,30.09,SE,135,0.0,0.0,47,0.00,CLR,OVC,0.00,0.0,WeatherDisplay:10.37,2013-06-15 02:41:00,
2013-06-14 22:46:00,66.9,46.0,30.09,ESE,112,1.6,2.3,47,0.00,CLR,OVC,0.00,0.0,WeatherDisplay:10.37,2013-06-15 02:46:00,
2013-06-14 22:51:00,66.9,46.0,30.09,ESE,112,0.0,0.0,47,0.00,CLR,OVC,0.00,0.0,WeatherDisplay:10.37,2013-06-15 02:51:00,
2013-06-14 22:56:00,66.7,45.9,30.09,SE,135,0.0,0.0,47,0.00,CLR,OVC,0.00,0.0,WeatherDisplay:10.37,2013-06-15 02:56:00,
2013-06-14 23:01:00,66.7,45.9,30.09,SSE,158,0.0,0.0,47,0.00,CLR,OVC,0.00,0.0,WeatherDisplay:10.37,2013-06-15 03:01:00,
2013-06-14 23:06:00,66.6,46.3,30.09,ESE,112,0.0,1.2,48,0.00,CLR,OVC,0.00,0.0,WeatherDisplay:10.37,2013-06-15 03:06:00,
2013-06-14 23:11:00,66.4,46.1,30.09,SE,135,0.0,0.0,48,0.00,CLR,OVC,0.00,0.0,WeatherDisplay:10.37,2013-06-15 03:11:00,
2013-06-14 23:16:00,66.4,46.6,30.09,SE,135,0.0,0.0,49,0.00,CLR,OVC,0.00,0.0,WeatherDisplay:10.37,2013-06-15 03:16:00,
2013-06-14 23:21:00,66.2,47.0,30.09,SE,135,0.0,0.0,50,0.00,CLR,OVC,0.00,0.0,WeatherDisplay:10.37,2013-06-15 03:21:00,
2013-06-14 23:26:00,66.2,47.5,30.09,SE,135,0.0,0.0,51,0.00,CLR,OVC,0.00,0.0,WeatherDisplay:10.37,2013-06-15 03:26:00,
2013-06-14 23:31:00,66.0,47.4,30.09,SE,135,0.0,0.0,51,0.00,CLR,OVC,0.00,0.0,WeatherDisplay:10.37,2013-06-15 03:31:00,
2013-06-14 23:36:00,65.8,48.2,30.09,SE,135,0.0,0.0,53,0.00,CLR,OVC,0.00,0.0,WeatherDisplay:10.37,2013-06-15 03:36:00,
2013-06-14 23:41:00,65.7,48.6,30.09,SE,135,0.0,0.0,54,0.00,CLR,OVC,0.00,0.0,WeatherDisplay:10.37,2013-06-15 03:41:00,
2013-06-14 23:46:00,65.5,48.4,30.09,SSE,158,0.0,0.0,54,0.00,CLR,OVC,0.00,0.0,WeatherDisplay:10.37,2013-06-15 03:46:00,
2013-06-14 23:51:00,65.3,48.2,30.09,SSE,158,0.0,0.0,54,0.00,CLR,OVC,0.00,0.0,WeatherDisplay:10.37,2013-06-15 03:51:00,
2013-06-14 23:56:00,65.1,48.1,30.09,SSE,158,0.0,0.0,54,0.00,CLR,OVC,0.00,0.0,WeatherDisplay:10.37,2013-06-15 03:56:00,